sensor_id;sensor_type;location;lat;lon;timestamp;P1;durP1;ratioP1;P2;durP2;ratioP2
84189;SDS011;74321;53.406;8.146;2024-02-23T00:01:51;1.58;;;0.45;;
84189;SDS011;74321;53.406;8.146;2024-02-23T00:06:54;1.13;;;0.20;;
84189;SDS011;74321;53.406;8.146;2024-02-23T00:11:56;0.22;;;0.10;;
84189;SDS011;74321;53.406;8.146;2024-02-23T00:16:58;0.00;;;0.00;;
84189;SDS011;74321;53.406;8.146;2024-02-23T00:22:00;0.55;;;0.10;;
84189;SDS011;74321;53.406;8.146;2024-02-23T00:27:02;0.00;;;0.00;;
84189;SDS011;74321;53.406;8.146;2024-02-23T00:32:04;0.13;;;0.00;;
84189;SDS011;74321;53.406;8.146;2024-02-23T00:37:07;0.68;;;0.20;;
84189;SDS011;74321;53.406;8.146;2024-02-23T00:42:09;0.10;;;0.03;;
84189;SDS011;74321;53.406;8.146;2024-02-23T00:47:11;0.60;;;0.05;;
84189;SDS011;74321;53.406;8.146;2024-02-23T00:52:14;0.63;;;0.20;;
84189;SDS011;74321;53.406;8.146;2024-02-23T00:57:19;0.55;;;0.00;;
84189;SDS011;74321;53.406;8.146;2024-02-23T01:02:27;0.13;;;0.13;;
84189;SDS011;74321;53.406;8.146;2024-02-23T01:07:29;1.00;;;0.08;;
84189;SDS011;74321;53.406;8.146;2024-02-23T01:12:34;3.53;;;1.20;;
84189;SDS011;74321;53.406;8.146;2024-02-23T01:17:36;1.13;;;0.40;;
84189;SDS011;74321;53.406;8.146;2024-02-23T01:22:39;0.75;;;0.30;;
84189;SDS011;74321;53.406;8.146;2024-02-23T01:27:41;3.97;;;1.63;;
84189;SDS011;74321;53.406;8.146;2024-02-23T01:32:43;8.88;;;0.80;;
84189;SDS011;74321;53.406;8.146;2024-02-23T01:37:45;2.13;;;0.70;;
84189;SDS011;74321;53.406;8.146;2024-02-23T01:42:47;2.05;;;0.10;;
84189;SDS011;74321;53.406;8.146;2024-02-23T01:47:49;1.58;;;0.93;;
84189;SDS011;74321;53.406;8.146;2024-02-23T01:52:51;0.32;;;0.20;;
84189;SDS011;74321;53.406;8.146;2024-02-23T01:57:53;0.80;;;0.30;;
84189;SDS011;74321;53.406;8.146;2024-02-23T02:02:56;0.38;;;0.13;;
84189;SDS011;74321;53.406;8.146;2024-02-23T02:07:59;0.70;;;0.20;;
84189;SDS011;74321;53.406;8.146;2024-02-23T02:13:05;1.00;;;0.30;;
84189;SDS011;74321;53.406;8.146;2024-02-23T02:18:07;1.67;;;0.40;;
84189;SDS011;74321;53.406;8.146;2024-02-23T02:23:09;1.65;;;0.20;;
84189;SDS011;74321;53.406;8.146;2024-02-23T02:28:12;0.93;;;0.40;;
84189;SDS011;74321;53.406;8.146;2024-02-23T02:33:14;0.47;;;0.30;;
84189;SDS011;74321;53.406;8.146;2024-02-23T02:38:17;0.40;;;0.20;;
84189;SDS011;74321;53.406;8.146;2024-02-23T02:43:19;0.57;;;0.20;;
84189;SDS011;74321;53.406;8.146;2024-02-23T02:48:22;0.10;;;0.10;;
84189;SDS011;74321;53.406;8.146;2024-02-23T02:53:25;0.90;;;0.25;;
84189;SDS011;74321;53.406;8.146;2024-02-23T02:58:27;3.20;;;0.38;;
84189;SDS011;74321;53.406;8.146;2024-02-23T03:03:29;0.43;;;0.30;;
84189;SDS011;74321;53.406;8.146;2024-02-23T03:08:31;0.65;;;0.25;;
84189;SDS011;74321;53.406;8.146;2024-02-23T03:13:33;1.00;;;0.20;;
84189;SDS011;74321;53.406;8.146;2024-02-23T03:18:35;7.82;;;0.90;;
84189;SDS011;74321;53.406;8.146;2024-02-23T03:23:37;2.42;;;0.65;;
84189;SDS011;74321;53.406;8.146;2024-02-23T03:28:39;1.15;;;0.63;;
84189;SDS011;74321;53.406;8.146;2024-02-23T03:33:41;3.30;;;0.70;;
84189;SDS011;74321;53.406;8.146;2024-02-23T03:38:44;2.22;;;0.68;;
84189;SDS011;74321;53.406;8.146;2024-02-23T03:43:46;3.35;;;0.70;;
84189;SDS011;74321;53.406;8.146;2024-02-23T03:48:48;4.65;;;1.10;;
84189;SDS011;74321;53.406;8.146;2024-02-23T03:53:50;4.78;;;1.10;;
84189;SDS011;74321;53.406;8.146;2024-02-23T03:58:52;1.73;;;0.90;;
84189;SDS011;74321;53.406;8.146;2024-02-23T04:03:54;3.10;;;1.30;;
84189;SDS011;74321;53.406;8.146;2024-02-23T04:08:56;6.78;;;1.73;;
84189;SDS011;74321;53.406;8.146;2024-02-23T04:13:58;3.25;;;1.25;;
84189;SDS011;74321;53.406;8.146;2024-02-23T04:19:02;4.82;;;0.98;;
84189;SDS011;74321;53.406;8.146;2024-02-23T04:24:04;3.50;;;0.95;;
84189;SDS011;74321;53.406;8.146;2024-02-23T04:29:08;4.80;;;1.30;;
84189;SDS011;74321;53.406;8.146;2024-02-23T04:34:10;3.20;;;1.67;;
84189;SDS011;74321;53.406;8.146;2024-02-23T04:39:12;5.93;;;1.48;;
84189;SDS011;74321;53.406;8.146;2024-02-23T04:44:14;3.38;;;1.48;;
84189;SDS011;74321;53.406;8.146;2024-02-23T04:49:16;3.33;;;1.25;;
84189;SDS011;74321;53.406;8.146;2024-02-23T04:54:18;7.20;;;1.20;;
84189;SDS011;74321;53.406;8.146;2024-02-23T04:59:20;2.45;;;0.65;;
84189;SDS011;74321;53.406;8.146;2024-02-23T05:04:22;4.03;;;0.90;;
84189;SDS011;74321;53.406;8.146;2024-02-23T05:09:24;2.42;;;0.80;;
84189;SDS011;74321;53.406;8.146;2024-02-23T05:14:26;4.45;;;1.10;;
84189;SDS011;74321;53.406;8.146;2024-02-23T05:19:28;3.00;;;0.90;;
84189;SDS011;74321;53.406;8.146;2024-02-23T05:24:30;3.60;;;0.80;;
84189;SDS011;74321;53.406;8.146;2024-02-23T05:29:32;3.40;;;0.90;;
84189;SDS011;74321;53.406;8.146;2024-02-23T05:34:34;2.35;;;0.85;;
84189;SDS011;74321;53.406;8.146;2024-02-23T05:39:37;3.67;;;1.05;;
84189;SDS011;74321;53.406;8.146;2024-02-23T05:44:39;7.18;;;0.73;;
84189;SDS011;74321;53.406;8.146;2024-02-23T05:49:42;2.22;;;0.90;;
84189;SDS011;74321;53.406;8.146;2024-02-23T05:54:45;2.88;;;1.08;;
84189;SDS011;74321;53.406;8.146;2024-02-23T05:59:51;5.80;;;1.35;;
84189;SDS011;74321;53.406;8.146;2024-02-23T06:04:53;2.38;;;1.48;;
84189;SDS011;74321;53.406;8.146;2024-02-23T06:09:55;4.82;;;1.67;;
84189;SDS011;74321;53.406;8.146;2024-02-23T06:14:57;6.57;;;2.05;;
84189;SDS011;74321;53.406;8.146;2024-02-23T06:20:00;6.22;;;1.92;;
84189;SDS011;74321;53.406;8.146;2024-02-23T06:25:05;1.73;;;1.25;;
84189;SDS011;74321;53.406;8.146;2024-02-23T06:30:07;4.30;;;2.35;;
84189;SDS011;74321;53.406;8.146;2024-02-23T06:35:09;4.88;;;2.25;;
84189;SDS011;74321;53.406;8.146;2024-02-23T06:40:14;5.25;;;2.20;;
84189;SDS011;74321;53.406;8.146;2024-02-23T06:45:16;3.33;;;1.67;;
84189;SDS011;74321;53.406;8.146;2024-02-23T06:50:18;2.28;;;1.65;;
84189;SDS011;74321;53.406;8.146;2024-02-23T06:55:20;4.53;;;1.98;;
84189;SDS011;74321;53.406;8.146;2024-02-23T07:00:22;6.82;;;1.83;;
84189;SDS011;74321;53.406;8.146;2024-02-23T07:05:24;4.65;;;2.50;;
84189;SDS011;74321;53.406;8.146;2024-02-23T07:10:27;5.85;;;2.83;;
84189;SDS011;74321;53.406;8.146;2024-02-23T07:15:29;3.85;;;2.20;;
84189;SDS011;74321;53.406;8.146;2024-02-23T07:20:31;5.45;;;1.83;;
84189;SDS011;74321;53.406;8.146;2024-02-23T07:25:33;7.22;;;3.03;;
84189;SDS011;74321;53.406;8.146;2024-02-23T07:30:35;5.72;;;2.47;;
84189;SDS011;74321;53.406;8.146;2024-02-23T07:35:37;6.40;;;2.40;;
84189;SDS011;74321;53.406;8.146;2024-02-23T07:40:39;4.90;;;2.05;;
84189;SDS011;74321;53.406;8.146;2024-02-23T07:45:41;6.78;;;1.75;;
84189;SDS011;74321;53.406;8.146;2024-02-23T07:50:44;6.40;;;2.20;;
84189;SDS011;74321;53.406;8.146;2024-02-23T07:55:46;4.20;;;1.45;;
84189;SDS011;74321;53.406;8.146;2024-02-23T08:00:48;3.53;;;1.92;;
84189;SDS011;74321;53.406;8.146;2024-02-23T08:05:50;6.03;;;1.95;;
84189;SDS011;74321;53.406;8.146;2024-02-23T08:10:52;3.05;;;1.67;;
84189;SDS011;74321;53.406;8.146;2024-02-23T08:15:55;8.27;;;2.25;;
84189;SDS011;74321;53.406;8.146;2024-02-23T08:20:57;8.52;;;1.50;;
84189;SDS011;74321;53.406;8.146;2024-02-23T08:26:00;5.50;;;1.90;;
84189;SDS011;74321;53.406;8.146;2024-02-23T08:31:02;5.70;;;1.65;;
84189;SDS011;74321;53.406;8.146;2024-02-23T08:36:04;5.63;;;1.88;;
84189;SDS011;74321;53.406;8.146;2024-02-23T08:41:07;5.63;;;1.65;;
84189;SDS011;74321;53.406;8.146;2024-02-23T08:46:10;4.90;;;1.85;;
84189;SDS011;74321;53.406;8.146;2024-02-23T08:51:12;8.93;;;1.50;;
84189;SDS011;74321;53.406;8.146;2024-02-23T08:56:14;9.93;;;1.92;;
84189;SDS011;74321;53.406;8.146;2024-02-23T09:01:17;3.92;;;1.38;;
84189;SDS011;74321;53.406;8.146;2024-02-23T09:06:19;4.05;;;1.30;;
84189;SDS011;74321;53.406;8.146;2024-02-23T09:16:28;3.08;;;0.90;;
84189;SDS011;74321;53.406;8.146;2024-02-23T09:21:31;2.63;;;0.82;;
84189;SDS011;74321;53.406;8.146;2024-02-23T09:26:35;4.30;;;1.00;;
84189;SDS011;74321;53.406;8.146;2024-02-23T09:31:37;3.38;;;1.10;;
84189;SDS011;74321;53.406;8.146;2024-02-23T09:36:39;4.18;;;0.73;;
84189;SDS011;74321;53.406;8.146;2024-02-23T09:41:41;3.95;;;0.80;;
84189;SDS011;74321;53.406;8.146;2024-02-23T09:46:44;4.65;;;0.70;;
84189;SDS011;74321;53.406;8.146;2024-02-23T09:51:49;3.67;;;0.63;;
84189;SDS011;74321;53.406;8.146;2024-02-23T09:56:51;4.63;;;0.60;;
84189;SDS011;74321;53.406;8.146;2024-02-23T10:01:54;2.42;;;0.47;;
84189;SDS011;74321;53.406;8.146;2024-02-23T10:06:56;4.50;;;0.60;;
84189;SDS011;74321;53.406;8.146;2024-02-23T10:11:58;2.65;;;0.50;;
84189;SDS011;74321;53.406;8.146;2024-02-23T10:17:00;1.80;;;0.65;;
84189;SDS011;74321;53.406;8.146;2024-02-23T10:22:04;6.80;;;1.00;;
84189;SDS011;74321;53.406;8.146;2024-02-23T10:27:06;3.95;;;0.75;;
84189;SDS011;74321;53.406;8.146;2024-02-23T10:32:09;1.30;;;0.52;;
84189;SDS011;74321;53.406;8.146;2024-02-23T10:37:17;1.25;;;0.60;;
84189;SDS011;74321;53.406;8.146;2024-02-23T10:42:19;4.15;;;0.85;;
84189;SDS011;74321;53.406;8.146;2024-02-23T10:47:26;5.32;;;1.15;;
84189;SDS011;74321;53.406;8.146;2024-02-23T10:52:28;3.53;;;1.27;;
84189;SDS011;74321;53.406;8.146;2024-02-23T10:57:31;3.90;;;0.60;;
84189;SDS011;74321;53.406;8.146;2024-02-23T11:02:34;2.20;;;0.93;;
84189;SDS011;74321;53.406;8.146;2024-02-23T11:07:55;2.63;;;0.50;;
84189;SDS011;74321;53.406;8.146;2024-02-23T11:12:58;4.20;;;0.68;;
84189;SDS011;74321;53.406;8.146;2024-02-23T11:18:01;3.08;;;0.88;;
84189;SDS011;74321;53.406;8.146;2024-02-23T11:23:12;2.83;;;0.70;;
84189;SDS011;74321;53.406;8.146;2024-02-23T11:28:22;2.05;;;0.40;;
84189;SDS011;74321;53.406;8.146;2024-02-23T11:33:26;3.88;;;0.73;;
84189;SDS011;74321;53.406;8.146;2024-02-23T11:38:29;3.70;;;0.93;;
84189;SDS011;74321;53.406;8.146;2024-02-23T11:43:33;4.30;;;0.55;;
84189;SDS011;74321;53.406;8.146;2024-02-23T11:48:36;1.63;;;0.60;;
84189;SDS011;74321;53.406;8.146;2024-02-23T11:53:38;0.93;;;0.40;;
84189;SDS011;74321;53.406;8.146;2024-02-23T11:58:41;2.58;;;0.68;;
84189;SDS011;74321;53.406;8.146;2024-02-23T12:03:43;3.60;;;0.88;;
84189;SDS011;74321;53.406;8.146;2024-02-23T12:08:46;3.75;;;0.60;;
84189;SDS011;74321;53.406;8.146;2024-02-23T12:13:48;2.20;;;0.50;;
84189;SDS011;74321;53.406;8.146;2024-02-23T12:18:53;1.50;;;0.50;;
84189;SDS011;74321;53.406;8.146;2024-02-23T12:23:57;3.35;;;1.10;;
84189;SDS011;74321;53.406;8.146;2024-02-23T12:29:02;3.95;;;0.77;;
84189;SDS011;74321;53.406;8.146;2024-02-23T12:34:05;6.32;;;0.90;;
84189;SDS011;74321;53.406;8.146;2024-02-23T12:39:07;3.85;;;1.13;;
84189;SDS011;74321;53.406;8.146;2024-02-23T12:44:09;7.63;;;1.00;;
84189;SDS011;74321;53.406;8.146;2024-02-23T12:49:12;3.45;;;0.50;;
84189;SDS011;74321;53.406;8.146;2024-02-23T12:54:14;2.92;;;0.73;;
84189;SDS011;74321;53.406;8.146;2024-02-23T12:59:16;1.48;;;0.63;;
84189;SDS011;74321;53.406;8.146;2024-02-23T13:09:23;0.95;;;0.60;;
84189;SDS011;74321;53.406;8.146;2024-02-23T13:14:25;4.75;;;1.05;;
84189;SDS011;74321;53.406;8.146;2024-02-23T13:19:27;3.42;;;1.23;;
84189;SDS011;74321;53.406;8.146;2024-02-23T13:24:30;2.03;;;1.33;;
84189;SDS011;74321;53.406;8.146;2024-02-23T13:29:32;3.38;;;0.90;;
84189;SDS011;74321;53.406;8.146;2024-02-23T13:34:34;3.42;;;1.17;;
84189;SDS011;74321;53.406;8.146;2024-02-23T13:39:36;2.47;;;0.88;;
84189;SDS011;74321;53.406;8.146;2024-02-23T13:44:38;2.28;;;1.02;;
84189;SDS011;74321;53.406;8.146;2024-02-23T13:49:40;3.10;;;0.88;;
84189;SDS011;74321;53.406;8.146;2024-02-23T13:54:42;2.83;;;0.90;;
84189;SDS011;74321;53.406;8.146;2024-02-23T13:59:44;6.97;;;1.27;;
84189;SDS011;74321;53.406;8.146;2024-02-23T14:04:46;4.70;;;1.73;;
84189;SDS011;74321;53.406;8.146;2024-02-23T14:09:49;2.20;;;1.25;;
84189;SDS011;74321;53.406;8.146;2024-02-23T14:14:51;3.38;;;1.75;;
84189;SDS011;74321;53.406;8.146;2024-02-23T14:19:53;3.78;;;1.55;;
84189;SDS011;74321;53.406;8.146;2024-02-23T14:24:55;4.05;;;1.90;;
84189;SDS011;74321;53.406;8.146;2024-02-23T14:29:57;3.72;;;1.80;;
84189;SDS011;74321;53.406;8.146;2024-02-23T14:35:01;2.88;;;2.00;;
84189;SDS011;74321;53.406;8.146;2024-02-23T14:40:05;5.90;;;1.92;;
84189;SDS011;74321;53.406;8.146;2024-02-23T14:45:08;5.22;;;1.70;;
84189;SDS011;74321;53.406;8.146;2024-02-23T14:50:11;3.90;;;1.95;;
84189;SDS011;74321;53.406;8.146;2024-02-23T14:55:13;3.95;;;1.55;;
84189;SDS011;74321;53.406;8.146;2024-02-23T15:00:15;3.03;;;1.10;;
84189;SDS011;74321;53.406;8.146;2024-02-23T15:05:18;2.35;;;1.02;;
84189;SDS011;74321;53.406;8.146;2024-02-23T15:10:20;5.25;;;1.50;;
84189;SDS011;74321;53.406;8.146;2024-02-23T15:15:22;1.77;;;1.15;;
84189;SDS011;74321;53.406;8.146;2024-02-23T15:20:25;2.80;;;1.25;;
84189;SDS011;74321;53.406;8.146;2024-02-23T15:25:27;3.03;;;1.20;;
84189;SDS011;74321;53.406;8.146;2024-02-23T15:30:29;1.05;;;0.70;;
84189;SDS011;74321;53.406;8.146;2024-02-23T15:35:32;4.75;;;1.38;;
84189;SDS011;74321;53.406;8.146;2024-02-23T15:40:36;5.78;;;2.42;;
84189;SDS011;74321;53.406;8.146;2024-02-23T15:45:38;4.63;;;1.10;;
84189;SDS011;74321;53.406;8.146;2024-02-23T15:50:40;3.20;;;1.17;;
84189;SDS011;74321;53.406;8.146;2024-02-23T15:56:02;1.63;;;0.80;;
84189;SDS011;74321;53.406;8.146;2024-02-23T16:01:05;1.92;;;0.80;;
84189;SDS011;74321;53.406;8.146;2024-02-23T16:06:07;3.60;;;0.77;;
84189;SDS011;74321;53.406;8.146;2024-02-23T16:11:10;2.67;;;1.10;;
84189;SDS011;74321;53.406;8.146;2024-02-23T16:16:13;2.58;;;1.00;;
84189;SDS011;74321;53.406;8.146;2024-02-23T16:21:16;4.85;;;1.80;;
84189;SDS011;74321;53.406;8.146;2024-02-23T16:26:18;2.50;;;1.10;;
84189;SDS011;74321;53.406;8.146;2024-02-23T16:31:20;3.05;;;0.60;;
84189;SDS011;74321;53.406;8.146;2024-02-23T16:36:22;4.68;;;1.08;;
84189;SDS011;74321;53.406;8.146;2024-02-23T16:41:24;2.72;;;0.80;;
84189;SDS011;74321;53.406;8.146;2024-02-23T16:46:27;5.60;;;1.48;;
84189;SDS011;74321;53.406;8.146;2024-02-23T16:51:29;3.75;;;1.20;;
84189;SDS011;74321;53.406;8.146;2024-02-23T16:56:31;7.25;;;1.17;;
84189;SDS011;74321;53.406;8.146;2024-02-23T17:01:33;4.93;;;1.58;;
84189;SDS011;74321;53.406;8.146;2024-02-23T17:06:35;1.88;;;0.75;;
84189;SDS011;74321;53.406;8.146;2024-02-23T17:11:37;3.15;;;1.08;;
84189;SDS011;74321;53.406;8.146;2024-02-23T17:16:40;3.35;;;0.90;;
84189;SDS011;74321;53.406;8.146;2024-02-23T17:21:42;5.28;;;1.00;;
84189;SDS011;74321;53.406;8.146;2024-02-23T17:26:44;3.72;;;0.75;;
84189;SDS011;74321;53.406;8.146;2024-02-23T17:31:46;1.77;;;0.73;;
84189;SDS011;74321;53.406;8.146;2024-02-23T17:36:48;7.93;;;1.65;;
84189;SDS011;74321;53.406;8.146;2024-02-23T17:41:50;4.07;;;1.40;;
84189;SDS011;74321;53.406;8.146;2024-02-23T17:46:53;2.03;;;0.55;;
84189;SDS011;74321;53.406;8.146;2024-02-23T17:51:55;3.13;;;1.33;;
84189;SDS011;74321;53.406;8.146;2024-02-23T17:56:57;2.47;;;1.02;;
84189;SDS011;74321;53.406;8.146;2024-02-23T18:01:59;3.53;;;1.05;;
84189;SDS011;74321;53.406;8.146;2024-02-23T18:07:02;4.40;;;1.98;;
84189;SDS011;74321;53.406;8.146;2024-02-23T18:12:05;3.05;;;1.73;;
84189;SDS011;74321;53.406;8.146;2024-02-23T18:17:08;3.08;;;2.00;;
84189;SDS011;74321;53.406;8.146;2024-02-23T18:22:10;7.78;;;2.58;;
84189;SDS011;74321;53.406;8.146;2024-02-23T18:27:12;2.90;;;2.10;;
84189;SDS011;74321;53.406;8.146;2024-02-23T18:32:15;3.20;;;2.00;;
84189;SDS011;74321;53.406;8.146;2024-02-23T18:37:17;4.10;;;1.80;;
84189;SDS011;74321;53.406;8.146;2024-02-23T18:42:19;11.35;;;2.35;;
84189;SDS011;74321;53.406;8.146;2024-02-23T18:47:22;4.78;;;2.25;;
84189;SDS011;74321;53.406;8.146;2024-02-23T18:52:25;6.82;;;2.10;;
84189;SDS011;74321;53.406;8.146;2024-02-23T18:57:27;4.93;;;1.83;;
84189;SDS011;74321;53.406;8.146;2024-02-23T19:02:32;2.33;;;1.70;;
84189;SDS011;74321;53.406;8.146;2024-02-23T19:07:36;5.10;;;2.28;;
84189;SDS011;74321;53.406;8.146;2024-02-23T19:12:41;3.33;;;1.42;;
84189;SDS011;74321;53.406;8.146;2024-02-23T19:17:49;3.38;;;1.48;;
84189;SDS011;74321;53.406;8.146;2024-02-23T19:22:51;3.35;;;1.70;;
84189;SDS011;74321;53.406;8.146;2024-02-23T19:27:58;5.65;;;1.70;;
84189;SDS011;74321;53.406;8.146;2024-02-23T19:33:01;7.63;;;1.95;;
84189;SDS011;74321;53.406;8.146;2024-02-23T19:38:04;2.72;;;1.30;;
84189;SDS011;74321;53.406;8.146;2024-02-23T19:43:06;7.13;;;2.30;;
84189;SDS011;74321;53.406;8.146;2024-02-23T19:48:08;7.13;;;2.40;;
84189;SDS011;74321;53.406;8.146;2024-02-23T19:53:11;6.97;;;2.35;;
84189;SDS011;74321;53.406;8.146;2024-02-23T19:58:13;7.47;;;2.65;;
84189;SDS011;74321;53.406;8.146;2024-02-23T20:03:15;9.82;;;3.17;;
84189;SDS011;74321;53.406;8.146;2024-02-23T20:08:17;5.20;;;2.35;;
84189;SDS011;74321;53.406;8.146;2024-02-23T20:13:21;6.85;;;2.45;;
84189;SDS011;74321;53.406;8.146;2024-02-23T20:18:23;8.35;;;2.47;;
84189;SDS011;74321;53.406;8.146;2024-02-23T20:23:25;4.88;;;2.20;;
84189;SDS011;74321;53.406;8.146;2024-02-23T20:28:27;6.18;;;2.30;;
84189;SDS011;74321;53.406;8.146;2024-02-23T20:33:32;5.88;;;2.28;;
84189;SDS011;74321;53.406;8.146;2024-02-23T20:38:35;9.68;;;2.70;;
84189;SDS011;74321;53.406;8.146;2024-02-23T20:43:37;4.80;;;2.15;;
84189;SDS011;74321;53.406;8.146;2024-02-23T20:48:39;6.95;;;1.90;;
84189;SDS011;74321;53.406;8.146;2024-02-23T20:53:41;4.55;;;2.10;;
84189;SDS011;74321;53.406;8.146;2024-02-23T20:58:43;4.80;;;2.05;;
84189;SDS011;74321;53.406;8.146;2024-02-23T21:03:45;4.53;;;2.05;;
84189;SDS011;74321;53.406;8.146;2024-02-23T21:08:48;3.55;;;1.52;;
84189;SDS011;74321;53.406;8.146;2024-02-23T21:13:50;6.35;;;2.05;;
84189;SDS011;74321;53.406;8.146;2024-02-23T21:18:52;2.22;;;1.45;;
84189;SDS011;74321;53.406;8.146;2024-02-23T21:23:54;5.82;;;1.95;;
84189;SDS011;74321;53.406;8.146;2024-02-23T21:28:56;3.17;;;1.77;;
84189;SDS011;74321;53.406;8.146;2024-02-23T21:33:58;6.10;;;1.50;;
84189;SDS011;74321;53.406;8.146;2024-02-23T21:39:03;2.78;;;1.10;;
84189;SDS011;74321;53.406;8.146;2024-02-23T21:44:05;4.75;;;1.83;;
84189;SDS011;74321;53.406;8.146;2024-02-23T21:49:08;3.17;;;1.33;;
84189;SDS011;74321;53.406;8.146;2024-02-23T21:54:10;6.00;;;2.67;;
84189;SDS011;74321;53.406;8.146;2024-02-23T21:59:12;3.55;;;1.85;;
84189;SDS011;74321;53.406;8.146;2024-02-23T22:04:14;4.60;;;1.67;;
84189;SDS011;74321;53.406;8.146;2024-02-23T22:09:19;4.00;;;2.17;;
84189;SDS011;74321;53.406;8.146;2024-02-23T22:14:23;4.00;;;1.75;;
84189;SDS011;74321;53.406;8.146;2024-02-23T22:19:25;4.68;;;2.10;;
84189;SDS011;74321;53.406;8.146;2024-02-23T22:24:27;4.50;;;2.30;;
84189;SDS011;74321;53.406;8.146;2024-02-23T22:29:29;8.68;;;2.90;;
84189;SDS011;74321;53.406;8.146;2024-02-23T22:34:31;8.75;;;3.10;;
84189;SDS011;74321;53.406;8.146;2024-02-23T22:39:33;5.25;;;2.97;;
84189;SDS011;74321;53.406;8.146;2024-02-23T22:44:35;8.95;;;4.13;;
84189;SDS011;74321;53.406;8.146;2024-02-23T22:49:38;5.70;;;2.10;;
84189;SDS011;74321;53.406;8.146;2024-02-23T22:54:41;6.47;;;2.40;;
84189;SDS011;74321;53.406;8.146;2024-02-23T22:59:43;4.63;;;1.83;;
84189;SDS011;74321;53.406;8.146;2024-02-23T23:04:45;1.92;;;1.30;;
84189;SDS011;74321;53.406;8.146;2024-02-23T23:09:47;3.08;;;1.50;;
84189;SDS011;74321;53.406;8.146;2024-02-23T23:14:49;3.65;;;1.60;;
84189;SDS011;74321;53.406;8.146;2024-02-23T23:19:51;5.47;;;2.00;;
84189;SDS011;74321;53.406;8.146;2024-02-23T23:24:53;3.03;;;1.70;;
84189;SDS011;74321;53.406;8.146;2024-02-23T23:29:55;2.47;;;1.30;;
84189;SDS011;74321;53.406;8.146;2024-02-23T23:34:57;2.67;;;1.45;;
84189;SDS011;74321;53.406;8.146;2024-02-23T23:39:59;3.03;;;1.52;;
84189;SDS011;74321;53.406;8.146;2024-02-23T23:45:01;5.45;;;1.80;;
84189;SDS011;74321;53.406;8.146;2024-02-23T23:50:04;2.45;;;1.20;;
84189;SDS011;74321;53.406;8.146;2024-02-23T23:55:07;3.72;;;1.52;;
